Pagina principale
METAR-TAF:

METAR-TAF

Aeroporti :

Aeroporto di Bologna-Borgo Panigale

Bologna, Italia

latitudine: 44-32N, longitudine: 011-18E, altezza: 36 m

Osservazione

Il bollettino è stato emesso 34 minuti fa, alle 11:20 UTC
Vento 8 kt da ovest
Temperature 4°C
Umidità 87%
Pressione 1017 hPa
Visibilità: 5000 m
Nubi sparse ad un'altezza di 1000 ft
Nuvoloso ad un'altezza di 3500 ft
pioviggine debole, foschia

METAR: LIPE 211120Z 28008KT 5000 -DZ BR SCT010 BKN035 04/02 Q1017

Ora: 12:54 (11:54 UTC)

Previsione

Il bollettino è stato emesso 54 minuti fa, alle 11:00 UTC
Previsione valida dal 21 alle 12 UTC al 22 alle 12 UTC
Vento 4 kt da direzioni variabili
Visibilità: 8000 m
Nuvoloso ad un'altezza di 2000 ft

TAF: LIPE 211100Z 2112/2212 VRB04KT 8000 BKN020

Osservazioni e previsioni meteorologiche di più di 4000 aeroporti (messaggi METAR e TAF).

Le stazioni disponibili sono rappresentate dai dischi gialli e rossi sulla carta.

Puntare il mouse per vedere il nome della stazione.

Clicca sopra per visualizzare le osservazioni e previsioni meteorologiche.

Per cambiare la mappa : fare clic sui pulsanti verdi con una croce nera per ingrandire, il pulsante verde con un trattino per diminuire, o sulla freccia verde per le mappe adiacenti.


METAR-TAF: